Time;durP1;ratioP1;P1;durP2;ratioP2;P2;SDS_P1;SDS_P2;PMS_P1;PMS_P2;Temp;Humidity;BMP_temperature;BMP_pressure;BME280_temperature;BME280_humidity;BME280_pressure;Samples;Min_cycle;Max_cycle;Signal;HPM_P1;HPM_P2
2021/09/15 00:01:23;0.00;0.00;0.62;0.00;0.00;0.62;7.23;6.60;;;27.90;36.50;;;;;;2249355;61;20724;-70
2021/09/15 00:04:07;0.00;0.00;0.62;0.00;0.00;0.62;6.30;5.80;;;27.90;37.20;;;;;;2249355;61;20407;-70
2021/09/15 00:06:53;0.00;0.00;0.62;0.00;0.00;0.62;7.13;6.43;;;27.90;36.50;;;;;;2249364;61;20423;-73
2021/09/15 00:09:37;0.00;0.00;0.62;0.00;0.00;0.62;6.70;6.00;;;27.90;36.60;;;;;;2249283;61;20388;-74
2021/09/15 00:12:22;0.00;0.00;0.62;0.00;0.00;0.62;9.00;6.70;;;27.90;36.60;;;;;;2249251;61;20385;-70
2021/09/15 00:15:08;0.00;0.00;0.62;0.00;0.00;0.62;6.60;6.10;;;27.90;36.70;;;;;;2249678;61;20404;-68
2021/09/15 00:17:53;0.00;0.00;0.62;0.00;0.00;0.62;6.27;5.77;;;27.80;36.60;;;;;;2249505;61;20408;-68
2021/09/15 00:20:38;0.00;0.00;0.62;0.00;0.00;0.62;8.80;6.70;;;27.80;36.60;;;;;;2249177;61;20728;-69
2021/09/15 00:23:24;0.00;0.00;0.62;0.00;0.00;0.62;7.47;6.73;;;27.80;36.60;;;;;;2249531;61;20458;-63
2021/09/15 00:26:08;0.00;0.00;0.62;0.00;0.00;0.62;7.30;6.70;;;27.80;36.70;;;;;;2249363;61;20396;-68
2021/09/15 00:28:53;0.00;0.00;0.62;0.00;0.00;0.62;6.37;5.83;;;27.70;36.60;;;;;;2249392;61;20372;-68
2021/09/15 00:31:38;0.00;0.00;0.62;0.00;0.00;0.62;6.80;6.20;;;27.70;36.70;;;;;;2249027;61;20360;-65
2021/09/15 00:34:27;0.00;0.00;0.62;0.00;0.00;0.62;7.80;7.00;;;27.70;36.80;;;;;;2248698;61;20359;-67
2021/09/15 00:37:12;0.00;0.00;0.62;0.00;0.00;0.62;10.90;6.97;;;27.60;36.80;;;;;;2249775;61;20369;-66
2021/09/15 00:39:59;0.00;0.00;0.62;0.00;0.00;0.62;8.93;7.70;;;27.60;36.90;;;;;;2249154;61;20360;-67
2021/09/15 00:42:44;0.00;0.00;0.62;0.00;0.00;0.62;7.87;7.27;;;27.50;36.90;;;;;;2249137;61;20384;-67
2021/09/15 00:45:31;0.00;0.00;0.62;0.00;0.00;0.62;7.67;6.97;;;27.50;37.00;;;;;;2249290;61;20379;-65
2021/09/15 00:48:16;0.00;0.00;0.62;0.00;0.00;0.62;7.70;7.00;;;27.40;37.10;;;;;;2249716;61;20522;-65
2021/09/15 00:51:01;0.00;0.00;0.62;0.00;0.00;0.62;7.93;7.33;;;27.30;37.20;;;;;;2249348;61;20356;-66
2021/09/15 00:53:46;0.00;0.00;0.62;0.00;0.00;0.62;9.20;8.50;;;27.30;37.40;;;;;;2249370;61;20724;-66
2021/09/15 00:56:34;0.00;0.00;0.62;0.00;0.00;0.62;8.57;7.77;;;27.20;37.40;;;;;;2249247;61;20396;-66
2021/09/15 00:59:21;0.00;0.00;0.62;0.00;0.00;0.62;8.20;7.40;;;27.20;37.60;;;;;;2249696;61;20364;-67
2021/09/15 01:02:06;0.00;0.00;0.62;0.00;0.00;0.62;7.87;7.27;;;27.20;37.80;;;;;;2249028;61;20356;-66
2021/09/15 01:04:51;0.00;0.00;0.62;0.00;0.00;0.62;8.40;7.70;;;27.10;37.80;;;;;;2248896;61;20384;-67
2021/09/15 01:07:36;0.00;0.00;0.62;0.00;0.00;0.62;7.80;6.53;;;27.00;37.80;;;;;;2249424;61;20441;-67
2021/09/15 01:10:23;0.00;0.00;0.62;0.00;0.00;0.62;7.50;6.83;;;27.00;38.00;;;;;;2249336;61;20348;-66
2021/09/15 01:13:25;0.00;0.00;0.62;0.00;0.00;0.62;7.40;6.60;;;27.00;38.00;;;;;;2249039;61;20357;-66
2021/09/15 01:16:50;0.00;0.00;0.62;0.00;0.00;0.62;7.47;6.70;;;27.00;38.10;;;;;;2245986;61;20428;-65
2021/09/15 01:20:11;0.00;0.00;0.62;0.00;0.00;0.62;7.27;6.57;;;27.00;38.20;;;;;;2247356;61;20725;-67
2021/09/15 01:23:10;0.00;0.00;0.62;0.00;0.00;0.62;8.10;7.50;;;27.00;38.20;;;;;;2251390;61;20381;-66
2021/09/15 01:26:13;0.00;0.00;0.62;0.00;0.00;0.62;8.00;7.20;;;27.00;38.20;;;;;;2248981;61;20447;-67
2021/09/15 01:29:27;0.00;0.00;0.62;0.00;0.00;0.62;7.90;7.20;;;27.00;38.30;;;;;;2249669;61;20376;-66
2021/09/15 01:32:15;0.00;0.00;0.62;0.00;0.00;0.62;8.13;7.47;;;27.00;38.40;;;;;;2251951;61;20434;-65
2021/09/15 01:35:00;0.00;0.00;0.62;0.00;0.00;0.62;7.13;6.57;;;27.00;38.60;;;;;;2248543;61;20428;-67
2021/09/15 01:37:49;0.00;0.00;0.62;0.00;0.00;0.62;6.83;6.23;;;26.90;38.60;;;;;;2251711;61;20474;-67
2021/09/15 01:40:36;0.00;0.00;0.62;0.00;0.00;0.62;7.57;6.50;;;26.90;38.60;;;;;;2249342;61;20416;-65
2021/09/15 01:43:20;0.00;0.00;0.62;0.00;0.00;0.62;6.63;5.93;;;26.90;38.60;;;;;;2252596;61;20764;-66
2021/09/15 01:46:05;0.00;0.00;0.62;0.00;0.00;0.62;7.23;6.53;;;26.90;38.60;;;;;;2249396;61;20427;-67
2021/09/15 01:48:49;0.00;0.00;0.62;0.00;0.00;0.62;7.13;6.53;;;26.90;38.60;;;;;;2249202;61;20597;-67
2021/09/15 01:51:38;0.00;0.00;0.62;0.00;0.00;0.62;10.40;7.70;;;27.00;38.70;;;;;;2249884;61;20368;-68
2021/09/15 01:54:23;0.00;0.00;0.62;0.00;0.00;0.62;8.30;7.47;;;27.00;38.80;;;;;;2249648;61;20568;-65
2021/09/15 01:57:10;0.00;0.00;0.62;0.00;0.00;0.62;7.00;6.33;;;27.00;38.70;;;;;;2249277;61;20364;-66
2021/09/15 02:00:14;0.00;0.00;0.62;0.00;0.00;0.62;7.60;6.90;;;26.90;38.70;;;;;;2249860;61;20399;-67
2021/09/15 02:03:12;0.00;0.00;0.62;0.00;0.00;0.62;7.10;6.40;;;26.90;38.70;;;;;;2249410;61;20436;-68
2021/09/15 02:06:11;0.00;0.00;0.62;0.00;0.00;0.62;7.93;7.33;;;26.90;38.80;;;;;;2249762;61;20445;-67
2021/09/15 02:08:59;0.00;0.00;0.62;0.00;0.00;0.62;7.47;6.80;;;26.90;38.90;;;;;;2249965;61;20448;-66
2021/09/15 02:11:52;0.00;0.00;0.62;0.00;0.00;0.62;7.20;6.60;;;26.80;38.90;;;;;;2249217;61;20361;-67
2021/09/15 02:14:38;0.00;0.00;0.62;0.00;0.00;0.62;7.53;6.40;;;26.80;39.10;;;;;;2249305;61;20408;-66
2021/09/15 02:17:23;0.00;0.00;0.62;0.00;0.00;0.62;7.33;6.63;;;26.80;39.10;;;;;;2252350;61;20361;-66
2021/09/15 02:20:12;0.00;0.00;0.62;0.00;0.00;0.62;8.90;6.90;;;26.80;39.20;;;;;;2249559;61;20413;-65
2021/09/15 02:23:15;0.00;0.00;0.62;0.00;0.00;0.62;7.87;7.17;;;26.70;39.10;;;;;;2249844;61;20428;-67
2021/09/15 02:26:15;0.00;0.00;0.62;0.00;0.00;0.62;8.07;7.37;;;26.70;39.20;;;;;;2249031;61;20377;-67
2021/09/15 02:29:08;0.00;0.00;0.62;0.00;0.00;0.62;7.87;6.87;;;26.70;39.30;;;;;;2249335;61;20610;-66
2021/09/15 02:32:04;0.00;0.00;0.62;0.00;0.00;0.62;7.90;7.03;;;26.70;39.40;;;;;;2249505;61;20400;-67
2021/09/15 02:35:09;0.00;0.00;0.62;0.00;0.00;0.62;10.23;8.10;;;26.70;39.50;;;;;;2252141;61;20376;-67
2021/09/15 02:38:24;0.00;0.00;0.62;0.00;0.00;0.62;8.13;7.43;;;26.70;39.60;;;;;;2249548;61;20381;-65
2021/09/15 02:41:32;0.00;0.00;0.62;0.00;0.00;0.62;8.07;6.50;;;26.60;39.50;;;;;;2246748;61;20372;-67
2021/09/15 02:44:27;0.00;0.00;0.62;0.00;0.00;0.62;7.43;6.73;;;26.60;39.60;;;;;;2249272;61;20611;-67
2021/09/15 02:47:31;0.00;0.00;0.62;0.00;0.00;0.62;6.60;6.10;;;26.60;39.70;;;;;;2249571;61;20383;-67
2021/09/15 02:50:28;0.00;0.00;0.62;0.00;0.00;0.62;6.87;6.17;;;26.60;39.70;;;;;;2251874;61;20775;-65
2021/09/15 02:53:31;0.00;0.00;0.62;0.00;0.00;0.62;7.60;6.90;;;26.70;39.70;;;;;;2253906;61;20583;-67
2021/09/15 02:56:26;0.00;0.00;0.62;0.00;0.00;0.62;7.00;6.40;;;26.70;39.70;;;;;;2253049;61;20379;-65
2021/09/15 02:59:29;0.00;0.00;0.62;0.00;0.00;0.62;6.60;6.00;;;26.70;39.70;;;;;;2253483;61;20711;-67
2021/09/15 03:02:35;0.00;0.00;0.62;0.00;0.00;0.62;6.53;6.03;;;26.70;39.70;;;;;;2253450;61;20708;-65
2021/09/15 03:05:38;0.00;0.00;0.62;0.00;0.00;0.62;6.53;5.80;;;26.80;39.70;;;;;;2253831;61;20760;-66
2021/09/15 03:08:40;0.00;0.00;0.62;0.00;0.00;0.62;7.80;6.93;;;26.80;39.60;;;;;;2253731;61;20360;-67
2021/09/15 03:11:25;0.00;0.00;0.62;0.00;0.00;0.62;8.03;6.60;;;26.80;39.60;;;;;;2253244;61;20404;-66
2021/09/15 03:14:09;0.00;0.00;0.62;0.00;0.00;0.62;6.90;6.30;;;26.80;39.60;;;;;;2253263;61;20698;-65
2021/09/15 03:16:54;0.00;0.00;0.62;0.00;0.00;0.62;6.70;6.20;;;26.80;39.50;;;;;;2253079;61;20360;-67
2021/09/15 03:19:40;0.00;0.00;0.62;0.00;0.00;0.62;6.60;6.00;;;26.90;39.50;;;;;;2253521;61;20388;-64
2021/09/15 03:22:27;0.00;0.00;0.62;0.00;0.00;0.62;7.33;6.80;;;26.90;39.50;;;;;;2253310;61;20360;-66
2021/09/15 03:25:12;0.00;0.00;0.62;0.00;0.00;0.62;7.80;7.07;;;26.90;39.50;;;;;;2252664;61;20386;-69
2021/09/15 03:27:57;0.00;0.00;0.62;0.00;0.00;0.62;7.33;6.60;;;26.90;39.50;;;;;;2253527;61;20375;-66
2021/09/15 03:30:41;0.00;0.00;0.62;0.00;0.00;0.62;6.70;6.10;;;27.00;39.60;;;;;;2254015;61;20364;-66
2021/09/15 03:33:26;0.00;0.00;0.62;0.00;0.00;0.62;6.70;6.10;;;26.90;39.50;;;;;;2253005;61;20383;-68
2021/09/15 03:36:12;0.00;0.00;0.62;0.00;0.00;0.62;6.67;6.07;;;27.00;39.60;;;;;;2253289;61;20448;-68
2021/09/15 03:38:58;0.00;0.00;0.62;0.00;0.00;0.62;7.27;6.37;;;26.90;39.50;;;;;;2252986;61;20592;-67
2021/09/15 03:41:44;0.00;0.00;0.62;0.00;0.00;0.62;6.47;5.97;;;26.90;39.50;;;;;;2253420;61;20379;-67
2021/09/15 03:44:29;0.00;0.00;0.62;0.00;0.00;0.62;6.93;6.33;;;26.90;39.40;;;;;;2253054;61;20387;-67
2021/09/15 03:47:14;0.00;0.00;0.62;0.00;0.00;0.62;7.00;6.40;;;26.90;39.40;;;;;;2252797;61;20367;-68
2021/09/15 03:49:59;0.00;0.00;0.62;0.00;0.00;0.62;7.80;7.10;;;27.00;39.50;;;;;;2253517;61;20634;-67
2021/09/15 03:52:45;0.00;0.00;0.62;0.00;0.00;0.62;7.37;6.67;;;26.90;39.40;;;;;;2253404;61;20402;-66
2021/09/15 03:55:30;0.00;0.00;0.62;0.00;0.00;0.62;8.57;7.73;;;26.90;39.40;;;;;;2252791;61;20396;-67
2021/09/15 03:58:15;0.00;0.00;0.62;0.00;0.00;0.62;9.13;8.33;;;26.90;39.50;;;;;;2253162;61;20403;-66
2021/09/15 04:01:00;0.00;0.00;0.62;0.00;0.00;0.62;8.37;7.47;;;26.90;39.50;;;;;;2252977;61;20590;-67
2021/09/15 04:03:44;0.00;0.00;0.62;0.00;0.00;0.62;9.00;8.10;;;26.80;39.40;;;;;;2253639;61;20383;-68
2021/09/15 04:06:29;0.00;0.00;0.62;0.00;0.00;0.62;7.73;7.03;;;26.80;39.50;;;;;;2252912;61;20456;-66
2021/09/15 04:09:15;0.00;0.00;0.62;0.00;0.00;0.62;7.83;7.23;;;26.80;39.60;;;;;;2252906;61;20439;-65
2021/09/15 04:12:02;0.00;0.00;0.62;0.00;0.00;0.62;8.33;7.60;;;26.70;39.70;;;;;;2253452;61;20372;-68
2021/09/15 04:14:48;0.00;0.00;0.62;0.00;0.00;0.62;7.60;6.93;;;26.70;39.90;;;;;;2252998;61;20460;-66
2021/09/15 04:17:33;0.00;0.00;0.62;0.00;0.00;0.62;7.97;7.27;;;26.60;39.80;;;;;;2252859;61;20735;-65
2021/09/15 04:20:18;0.00;0.00;0.62;0.00;0.00;0.62;8.00;7.20;;;26.60;40.00;;;;;;2250430;61;20642;-65
2021/09/15 04:23:03;0.00;0.00;0.62;0.00;0.00;0.62;6.80;6.20;;;26.50;40.00;;;;;;2253167;61;20375;-67
2021/09/15 04:31:57;0.00;0.00;0.62;0.00;0.00;0.62;8.40;7.70;;;26.60;40.20;;;;;;2252787;61;20367;-67
2021/09/15 04:34:42;0.00;0.00;0.62;0.00;0.00;0.62;8.77;7.97;;;26.60;40.40;;;;;;2252999;61;20408;-65
2021/09/15 04:37:27;0.00;0.00;0.62;0.00;0.00;0.62;8.57;7.77;;;26.60;40.50;;;;;;2253376;61;20411;-65
2021/09/15 04:40:13;0.00;0.00;0.62;0.00;0.00;0.62;8.97;8.07;;;26.50;40.50;;;;;;2252966;61;20360;-66
2021/09/15 04:42:58;0.00;0.00;0.62;0.00;0.00;0.62;8.77;7.97;;;26.50;40.70;;;;;;2253350;61;20403;-65
2021/09/15 04:45:43;0.00;0.00;0.62;0.00;0.00;0.62;8.20;7.47;;;26.50;40.90;;;;;;2252694;61;20446;-67
2021/09/15 04:48:28;0.00;0.00;0.62;0.00;0.00;0.62;11.97;8.03;;;26.50;40.90;;;;;;2253260;61;20443;-66
2021/09/15 04:51:13;0.00;0.00;0.62;0.00;0.00;0.62;7.80;7.10;;;26.40;40.80;;;;;;2253410;61;20480;-66
2021/09/15 04:54:01;0.00;0.00;0.62;0.00;0.00;0.62;9.07;8.27;;;26.40;40.80;;;;;;2252665;61;20367;-66
2021/09/15 04:56:45;0.00;0.00;0.62;0.00;0.00;0.62;9.93;8.90;;;26.30;40.80;;;;;;2253270;61;20375;-66
2021/09/15 04:59:36;0.00;0.00;0.62;0.00;0.00;0.62;7.47;6.87;;;26.30;41.00;;;;;;2253863;61;20700;-67
2021/09/15 05:02:21;0.00;0.00;0.62;0.00;0.00;0.62;8.90;7.37;;;26.30;40.80;;;;;;2250127;61;20610;-66
2021/09/15 05:05:07;0.00;0.00;0.62;0.00;0.00;0.62;7.80;7.10;;;26.30;40.90;;;;;;2252786;61;20687;-66
2021/09/15 05:08:01;0.00;0.00;0.62;0.00;0.00;0.62;8.00;7.00;;;26.30;41.00;;;;;;2252803;61;20403;-66
2021/09/15 05:10:46;0.00;0.00;0.62;0.00;0.00;0.62;8.83;7.70;;;26.20;41.00;;;;;;2253180;61;20582;-65
2021/09/15 05:13:31;0.00;0.00;0.62;0.00;0.00;0.62;7.60;7.00;;;26.20;41.00;;;;;;2253334;61;20355;-67
2021/09/15 05:16:17;0.00;0.00;0.62;0.00;0.00;0.62;9.83;7.40;;;26.20;41.00;;;;;;2253852;61;20760;-66
2021/09/15 05:19:02;0.00;0.00;0.62;0.00;0.00;0.62;8.00;7.30;;;26.30;41.10;;;;;;2253784;61;20359;-66
2021/09/15 05:21:47;0.00;0.00;0.62;0.00;0.00;0.62;10.60;7.20;;;26.20;41.10;;;;;;2253962;61;20363;-66
2021/09/15 05:24:32;0.00;0.00;0.62;0.00;0.00;0.62;8.63;7.87;;;26.20;41.00;;;;;;2253640;61;20468;-67
2021/09/15 05:27:16;0.00;0.00;0.62;0.00;0.00;0.62;7.80;7.20;;;26.30;41.20;;;;;;2253671;61;20512;-66
2021/09/15 05:30:02;0.00;0.00;0.62;0.00;0.00;0.62;8.60;7.70;;;26.20;41.20;;;;;;2253567;61;20375;-66
2021/09/15 05:32:49;0.00;0.00;0.62;0.00;0.00;0.62;7.00;6.40;;;26.20;41.20;;;;;;2253796;61;20367;-66
2021/09/15 05:35:34;0.00;0.00;0.62;0.00;0.00;0.62;8.53;7.73;;;26.20;41.20;;;;;;2253573;61;20399;-66
2021/09/15 05:38:22;0.00;0.00;0.62;0.00;0.00;0.62;8.57;7.63;;;26.20;41.30;;;;;;2253353;61;20403;-66
2021/09/15 05:41:25;0.00;0.00;0.62;0.00;0.00;0.62;8.57;7.77;;;26.20;41.30;;;;;;2253587;61;20432;-66
2021/09/15 05:44:11;0.00;0.00;0.62;0.00;0.00;0.62;9.70;8.00;;;26.20;41.40;;;;;;2253797;61;20380;-65
2021/09/15 05:46:56;0.00;0.00;0.62;0.00;0.00;0.62;8.30;7.17;;;26.20;41.40;;;;;;2253522;61;20360;-66
2021/09/15 05:49:42;0.00;0.00;0.62;0.00;0.00;0.62;9.33;8.43;;;26.20;41.50;;;;;;2253582;61;20413;-66
2021/09/15 05:52:26;0.00;0.00;0.62;0.00;0.00;0.62;7.90;7.10;;;26.20;41.50;;;;;;2253670;61;20363;-66
2021/09/15 05:55:12;0.00;0.00;0.62;0.00;0.00;0.62;7.73;7.03;;;26.20;41.50;;;;;;2253669;61;20444;-66
2021/09/15 05:57:57;0.00;0.00;0.62;0.00;0.00;0.62;7.90;7.10;;;26.20;41.60;;;;;;2253613;61;20359;-66
2021/09/15 06:00:42;0.00;0.00;0.62;0.00;0.00;0.62;7.30;6.70;;;26.10;41.60;;;;;;2253142;61;20400;-66
2021/09/15 06:03:33;0.00;0.00;0.62;0.00;0.00;0.62;9.67;6.50;;;26.10;41.60;;;;;;2253240;61;20408;-67
2021/09/15 06:06:37;0.00;0.00;0.62;0.00;0.00;0.62;8.57;7.10;;;26.10;41.70;;;;;;2253275;61;20644;-63
2021/09/15 06:09:31;0.00;0.00;0.62;0.00;0.00;0.62;7.20;6.50;;;26.00;41.70;;;;;;2253433;61;20383;-70
2021/09/15 06:12:16;0.00;0.00;0.62;0.00;0.00;0.62;8.10;7.40;;;26.00;41.70;;;;;;2253174;61;20367;-69
2021/09/15 06:15:00;0.00;0.00;0.62;0.00;0.00;0.62;7.53;6.73;;;26.00;41.70;;;;;;2253064;61;20488;-68
2021/09/15 06:17:46;0.00;0.00;0.62;0.00;0.00;0.62;8.00;6.90;;;26.00;41.70;;;;;;2253463;61;20591;-69
2021/09/15 06:20:36;0.00;0.00;0.62;0.00;0.00;0.62;8.37;7.03;;;26.00;41.70;;;;;;2253115;61;20749;-68
2021/09/15 06:23:30;0.00;0.00;0.62;0.00;0.00;0.62;6.77;6.27;;;26.00;41.70;;;;;;2253211;61;20418;-70
2021/09/15 06:26:24;0.00;0.00;0.62;0.00;0.00;0.62;7.70;6.90;;;26.10;41.80;;;;;;2253532;61;20605;-70
2021/09/15 06:29:09;0.00;0.00;0.62;0.00;0.00;0.62;6.80;6.20;;;26.00;41.70;;;;;;2253325;61;20419;-67
2021/09/15 06:31:53;0.00;0.00;0.62;0.00;0.00;0.62;6.70;6.20;;;26.10;41.80;;;;;;2253085;61;20410;-67
2021/09/15 06:34:39;0.00;0.00;0.62;0.00;0.00;0.62;6.90;5.53;;;26.10;41.80;;;;;;2253312;61;20590;-67
2021/09/15 06:37:24;0.00;0.00;0.62;0.00;0.00;0.62;8.90;5.77;;;26.10;41.80;;;;;;2253741;61;20378;-68
2021/09/15 06:40:11;0.00;0.00;0.62;0.00;0.00;0.62;6.67;6.00;;;26.20;41.90;;;;;;2254168;61;20444;-68
2021/09/15 06:42:56;0.00;0.00;0.62;0.00;0.00;0.62;5.90;5.40;;;26.20;41.90;;;;;;2253979;61;20359;-69
2021/09/15 06:45:40;0.00;0.00;0.62;0.00;0.00;0.62;5.70;5.20;;;26.20;41.80;;;;;;2253663;61;20416;-65
2021/09/15 06:48:26;0.00;0.00;0.62;0.00;0.00;0.62;6.43;5.73;;;26.30;41.80;;;;;;2256088;61;20586;-67
2021/09/15 06:51:11;0.00;0.00;0.62;0.00;0.00;0.62;6.10;5.50;;;26.30;41.70;;;;;;2253803;61;20448;-70
2021/09/15 06:53:55;0.00;0.00;0.62;0.00;0.00;0.62;8.80;6.30;;;26.30;41.70;;;;;;2253818;61;20407;-69
2021/09/15 06:56:41;0.00;0.00;0.62;0.00;0.00;0.62;6.77;6.07;;;26.30;41.60;;;;;;2253728;61;20387;-69
2021/09/15 06:59:26;0.00;0.00;0.62;0.00;0.00;0.62;7.83;7.13;;;26.30;41.50;;;;;;2253732;61;20372;-69
2021/09/15 07:02:11;0.00;0.00;0.62;0.00;0.00;0.62;8.60;7.00;;;26.30;41.50;;;;;;2253593;61;20681;-69
2021/09/15 07:04:55;0.00;0.00;0.62;0.00;0.00;0.62;8.27;6.40;;;26.30;41.50;;;;;;2253819;61;20660;-69
2021/09/15 07:07:40;0.00;0.00;0.62;0.00;0.00;0.62;8.20;7.40;;;26.40;41.60;;;;;;2253560;61;20715;-68
2021/09/15 07:10:25;0.00;0.00;0.62;0.00;0.00;0.62;8.70;7.00;;;26.30;41.70;;;;;;2255977;61;20419;-68
2021/09/15 07:13:10;0.00;0.00;0.62;0.00;0.00;0.62;8.37;7.47;;;26.30;41.90;;;;;;2253874;61;20375;-68
2021/09/15 07:15:57;0.00;0.00;0.62;0.00;0.00;0.62;8.77;6.97;;;26.30;42.10;;;;;;2253328;61;20503;-68
2021/09/15 07:18:44;0.00;0.00;0.62;0.00;0.00;0.62;10.13;6.60;;;26.30;42.20;;;;;;2253615;61;20399;-68
2021/09/15 07:21:28;0.00;0.00;0.62;0.00;0.00;0.62;8.03;7.23;;;26.30;42.50;;;;;;2253749;61;20581;-68
2021/09/15 07:24:13;0.00;0.00;0.62;0.00;0.00;0.62;11.27;7.23;;;26.20;42.50;;;;;;2253347;61;20383;-68
2021/09/15 07:26:58;0.00;0.00;0.62;0.00;0.00;0.62;8.37;7.10;;;26.20;42.70;;;;;;2253679;61;20367;-68
2021/09/15 07:29:43;0.00;0.00;0.62;0.00;0.00;0.62;9.63;7.37;;;26.20;42.80;;;;;;2253529;61;20372;-63
2021/09/15 07:32:28;0.00;0.00;0.62;0.00;0.00;0.62;11.70;7.50;;;26.20;42.90;;;;;;2253594;61;20375;-67
2021/09/15 07:35:13;0.00;0.00;0.62;0.00;0.00;0.62;8.50;7.00;;;26.20;42.90;;;;;;2253443;61;20371;-65
2021/09/15 07:37:57;0.00;0.00;0.62;0.00;0.00;0.62;8.77;7.60;;;26.20;43.10;;;;;;2253715;61;20775;-66
2021/09/15 07:40:42;0.00;0.00;0.62;0.00;0.00;0.62;9.23;6.60;;;26.10;43.20;;;;;;2251787;61;20359;-65
2021/09/15 07:43:26;0.00;0.00;0.62;0.00;0.00;0.62;7.33;6.60;;;26.20;43.50;;;;;;2253526;61;20391;-68
2021/09/15 07:46:13;0.00;0.00;0.62;0.00;0.00;0.62;8.00;6.57;;;26.20;43.50;;;;;;2253558;61;20404;-69
2021/09/15 07:48:58;0.00;0.00;0.62;0.00;0.00;0.62;7.60;6.30;;;26.10;43.40;;;;;;2253795;61;20480;-68
2021/09/15 07:51:42;0.00;0.00;0.62;0.00;0.00;0.62;9.80;7.33;;;26.10;43.50;;;;;;2253335;61;20356;-66
2021/09/15 07:54:27;0.00;0.00;0.62;0.00;0.00;0.62;11.13;6.00;;;26.20;43.60;;;;;;2253216;61;20589;-67
2021/09/15 07:57:13;0.00;0.00;0.62;0.00;0.00;0.62;8.13;6.40;;;26.20;43.50;;;;;;2253829;61;20368;-67
2021/09/15 07:59:57;0.00;0.00;0.62;0.00;0.00;0.62;8.40;7.00;;;26.30;43.50;;;;;;2253565;61;20380;-67
2021/09/15 08:02:43;0.00;0.00;0.62;0.00;0.00;0.62;8.13;7.33;;;26.30;43.40;;;;;;2253046;61;20402;-67
2021/09/15 08:05:28;0.00;0.00;0.62;0.00;0.00;0.62;10.43;7.50;;;26.30;43.60;;;;;;2253309;61;20395;-68
2021/09/15 08:08:14;0.00;0.00;0.62;0.00;0.00;0.62;8.90;7.67;;;26.30;43.80;;;;;;2253604;61;20407;-67
2021/09/15 08:10:59;0.00;0.00;0.62;0.00;0.00;0.62;8.23;7.47;;;26.30;43.90;;;;;;2253426;61;20378;-68
2021/09/15 08:13:44;0.00;0.00;0.62;0.00;0.00;0.62;8.43;7.43;;;26.40;44.10;;;;;;2253163;61;20368;-65
2021/09/15 08:16:28;0.00;0.00;0.62;0.00;0.00;0.62;8.93;8.10;;;26.40;44.20;;;;;;2253258;61;20379;-68
2021/09/15 08:19:14;0.00;0.00;0.62;0.00;0.00;0.62;7.23;6.63;;;26.40;44.40;;;;;;2253658;61;20360;-68
2021/09/15 08:21:58;0.00;0.00;0.62;0.00;0.00;0.62;8.20;7.37;;;26.40;44.50;;;;;;2253395;61;20371;-66
2021/09/15 08:24:43;0.00;0.00;0.62;0.00;0.00;0.62;8.53;7.70;;;26.40;44.50;;;;;;2252874;61;20695;-67
2021/09/15 08:27:28;0.00;0.00;0.62;0.00;0.00;0.62;8.03;7.13;;;26.40;44.50;;;;;;2253305;61;20395;-66
2021/09/15 08:30:13;0.00;0.00;0.62;0.00;0.00;0.62;10.30;7.70;;;26.40;44.50;;;;;;2253369;61;20388;-68
2021/09/15 08:32:57;0.00;0.00;0.62;0.00;0.00;0.62;8.00;7.30;;;26.50;44.70;;;;;;2252669;61;20483;-68
2021/09/15 08:35:43;0.00;0.00;0.62;0.00;0.00;0.62;9.43;7.47;;;26.40;44.70;;;;;;2253069;61;20782;-68
2021/09/15 08:38:28;0.00;0.00;0.62;0.00;0.00;0.62;7.47;6.87;;;26.40;44.70;;;;;;2253348;61;20383;-67
2021/09/15 08:41:14;0.00;0.00;0.62;0.00;0.00;0.62;9.57;7.27;;;26.40;44.90;;;;;;2253446;61;20359;-66
2021/09/15 08:43:59;0.00;0.00;0.62;0.00;0.00;0.62;7.20;6.53;;;26.40;44.90;;;;;;2253345;61;20383;-67
2021/09/15 08:46:45;0.00;0.00;0.62;0.00;0.00;0.62;8.10;7.23;;;26.40;45.00;;;;;;2252940;61;20439;-68
2021/09/15 08:49:30;0.00;0.00;0.62;0.00;0.00;0.62;7.80;6.83;;;26.40;45.00;;;;;;2254182;61;20359;-65
2021/09/15 08:52:16;0.00;0.00;0.62;0.00;0.00;0.62;8.57;6.77;;;26.40;45.00;;;;;;2254261;61;20359;-67
2021/09/15 08:55:02;0.00;0.00;0.62;0.00;0.00;0.62;7.97;7.23;;;26.40;45.00;;;;;;2253583;61;20496;-67
2021/09/15 08:57:47;0.00;0.00;0.62;0.00;0.00;0.62;8.10;7.30;;;26.30;44.90;;;;;;2254144;61;20483;-68
2021/09/15 09:00:32;0.00;0.00;0.62;0.00;0.00;0.62;8.93;8.03;;;26.30;45.00;;;;;;2253945;61;20388;-64
2021/09/15 09:03:16;0.00;0.00;0.62;0.00;0.00;0.62;8.40;6.93;;;26.40;45.00;;;;;;2254016;61;20363;-67
2021/09/15 09:06:08;0.00;0.00;0.62;0.00;0.00;0.62;8.30;7.10;;;26.40;45.10;;;;;;2253917;61;20454;-69
2021/09/15 09:08:57;0.00;0.00;0.62;0.00;0.00;0.62;9.37;7.77;;;26.40;45.20;;;;;;2253641;61;20770;-68
2021/09/15 09:11:44;0.00;0.00;0.62;0.00;0.00;0.62;9.33;8.50;;;26.40;45.30;;;;;;2254090;61;20573;-67
2021/09/15 09:14:29;0.00;0.00;0.62;0.00;0.00;0.62;9.27;8.30;;;26.40;45.40;;;;;;2254036;61;20382;-67
2021/09/15 09:17:29;0.00;0.00;0.62;0.00;0.00;0.62;12.63;8.63;;;26.40;45.50;;;;;;2253774;61;20697;-68
2021/09/15 09:20:21;0.00;0.00;0.62;0.00;0.00;0.62;10.63;9.50;;;26.40;45.50;;;;;;2253888;61;20363;-66
2021/09/15 09:23:10;0.00;0.00;0.62;0.00;0.00;0.62;9.60;8.70;;;26.40;45.60;;;;;;2253839;61;20364;-68
2021/09/15 09:25:58;0.00;0.00;0.62;0.00;0.00;0.62;13.13;8.13;;;26.40;45.60;;;;;;2254271;61;20383;-66
2021/09/15 09:28:44;0.00;0.00;0.62;0.00;0.00;0.62;9.70;8.00;;;26.40;45.60;;;;;;2253840;61;20375;-67
2021/09/15 09:31:33;0.00;0.00;0.62;0.00;0.00;0.62;8.23;7.50;;;26.50;45.70;;;;;;2253543;61;20594;-67
2021/09/15 09:34:19;0.00;0.00;0.62;0.00;0.00;0.62;9.10;7.73;;;26.50;45.70;;;;;;2253966;61;20569;-68
2021/09/15 09:37:09;0.00;0.00;0.62;0.00;0.00;0.62;9.03;8.23;;;26.50;45.70;;;;;;2254064;61;20411;-66
2021/09/15 09:39:57;0.00;0.00;0.62;0.00;0.00;0.62;9.80;8.67;;;26.50;46.40;;;;;;2254051;61;20368;-68
2021/09/15 09:42:43;0.00;0.00;0.62;0.00;0.00;0.62;8.43;7.53;;;26.60;45.80;;;;;;2253744;61;20379;-67
2021/09/15 09:45:31;0.00;0.00;0.62;0.00;0.00;0.62;7.90;7.20;;;26.60;45.80;;;;;;2253041;61;20911;-68
2021/09/15 09:48:29;0.00;0.00;0.62;0.00;0.00;0.62;7.50;6.80;;;26.60;45.80;;;;;;2254191;61;20418;-66
2021/09/15 09:51:29;0.00;0.00;0.62;0.00;0.00;0.62;8.10;7.40;;;26.70;45.70;;;;;;2254071;61;20349;-67
2021/09/15 09:54:21;0.00;0.00;0.62;0.00;0.00;0.62;8.47;7.70;;;26.70;45.70;;;;;;2253501;61;20479;-65
2021/09/15 09:57:05;0.00;0.00;0.62;0.00;0.00;0.62;8.83;7.93;;;26.70;45.70;;;;;;2253779;61;20590;-67
2021/09/15 09:59:52;0.00;0.00;0.62;0.00;0.00;0.62;7.80;7.10;;;26.80;45.80;;;;;;2253636;61;20369;-66
2021/09/15 10:02:37;0.00;0.00;0.62;0.00;0.00;0.62;8.60;7.53;;;26.80;45.80;;;;;;2254097;61;20472;-67
2021/09/15 10:05:22;0.00;0.00;0.62;0.00;0.00;0.62;8.87;7.80;;;26.80;45.70;;;;;;2253702;61;20398;-66
2021/09/15 10:08:08;0.00;0.00;0.62;0.00;0.00;0.62;7.77;6.93;;;26.80;45.80;;;;;;2253650;61;20635;-66
2021/09/15 10:10:53;0.00;0.00;0.62;0.00;0.00;0.62;7.60;6.90;;;26.90;45.80;;;;;;2253743;61;20399;-66
2021/09/15 10:13:37;0.00;0.00;0.62;0.00;0.00;0.62;7.37;6.77;;;26.90;45.60;;;;;;2253536;61;20379;-66
2021/09/15 10:16:24;0.00;0.00;0.62;0.00;0.00;0.62;9.10;8.20;;;26.90;45.60;;;;;;2253702;61;20411;-65
2021/09/15 10:19:11;0.00;0.00;0.62;0.00;0.00;0.62;7.90;7.20;;;27.00;45.70;;;;;;2253740;61;20372;-66
2021/09/15 10:21:58;0.00;0.00;0.62;0.00;0.00;0.62;8.80;7.97;;;27.00;45.70;;;;;;2253329;61;20578;-68
2021/09/15 10:24:55;0.00;0.00;0.62;0.00;0.00;0.62;9.90;8.80;;;27.00;45.70;;;;;;2253550;61;20371;-66
2021/09/15 10:27:59;0.00;0.00;0.62;0.00;0.00;0.62;9.93;9.03;;;27.00;45.60;;;;;;2253561;61;20496;-67
2021/09/15 10:30:47;0.00;0.00;0.62;0.00;0.00;0.62;8.97;8.17;;;27.10;45.70;;;;;;2253528;61;20367;-67
2021/09/15 10:33:48;0.00;0.00;0.62;0.00;0.00;0.62;9.17;8.37;;;27.10;45.60;;;;;;2253686;61;20367;-67
2021/09/15 10:36:40;0.00;0.00;0.62;0.00;0.00;0.62;8.40;7.70;;;27.10;45.60;;;;;;2253788;61;20383;-65
2021/09/15 10:39:26;0.00;0.00;0.62;0.00;0.00;0.62;9.00;8.23;;;27.10;45.60;;;;;;2253578;61;20391;-67
2021/09/15 10:42:38;0.00;0.00;0.62;0.00;0.00;0.62;8.40;7.60;;;27.10;45.60;;;;;;2253650;61;20364;-66
2021/09/15 10:45:26;0.00;0.00;0.62;0.00;0.00;0.62;9.90;9.10;;;27.10;45.60;;;;;;2253137;61;20468;-66
2021/09/15 10:48:14;0.00;0.00;0.62;0.00;0.00;0.62;9.07;8.27;;;27.20;45.70;;;;;;2253835;61;20368;-66
2021/09/15 10:50:59;0.00;0.00;0.62;0.00;0.00;0.62;9.10;8.07;;;27.20;45.60;;;;;;2253987;61;20726;-67
2021/09/15 10:53:45;0.00;0.00;0.62;0.00;0.00;0.62;8.10;7.40;;;27.20;45.60;;;;;;2253512;61;20426;-65
2021/09/15 10:56:35;0.00;0.00;0.62;0.00;0.00;0.62;11.50;9.03;;;27.20;45.60;;;;;;2253651;61;20463;-67
2021/09/15 10:59:51;0.00;0.00;0.62;0.00;0.00;0.62;9.70;8.80;;;27.20;46.10;;;;;;2253687;61;20363;-70
2021/09/15 11:02:41;0.00;0.00;0.62;0.00;0.00;0.62;9.13;8.23;;;27.20;46.20;;;;;;2253809;61;20719;-66
2021/09/15 11:05:43;0.00;0.00;0.62;0.00;0.00;0.62;10.00;9.10;;;27.20;46.00;;;;;;2253710;61;20391;-68
2021/09/15 11:08:38;0.00;0.00;0.62;0.00;0.00;0.62;9.50;8.60;;;27.20;46.00;;;;;;2253725;61;20468;-68
2021/09/15 11:11:49;0.00;0.00;0.62;0.00;0.00;0.62;9.47;8.67;;;27.20;46.00;;;;;;2253444;61;20368;-66